Time;durP1;ratioP1;P1;durP2;ratioP2;P2;SDS_P1;SDS_P2;PMS_P1;PMS_P2;Temp;Humidity;BMP_temperature;BMP_pressure;BME280_temperature;BME280_humidity;BME280_pressure;Samples;Min_cycle;Max_cycle;Signal;HPM_P1;HPM_P2
2022/06/10 00:00:22;;;;;;;1.70;1.60;;;;;;;;;;5052695;28;20966;-53
2022/06/10 00:02:49;;;;;;;2.47;2.23;;;;;;;;;;5052565;28;20448;-55
2022/06/10 00:05:18;;;;;;;1.83;1.73;;;;;;;;;;5052814;28;20450;-51
2022/06/10 00:07:46;;;;;;;1.97;1.67;;;;;;;;;;5052599;28;20494;-54
2022/06/10 00:10:15;;;;;;;1.70;1.60;;;;;;;;;;5052671;28;20480;-54
2022/06/10 00:12:42;;;;;;;3.10;1.90;;;;;;;;;;5052541;28;20448;-55
2022/06/10 00:15:11;;;;;;;2.17;1.97;;;;;;;;;;5052466;28;20536;-55
2022/06/10 00:17:38;;;;;;;2.50;2.07;;;;;;;;;;5052691;28;20452;-55
2022/06/10 00:20:06;;;;;;;1.93;1.83;;;;;;;;;;5052610;28;20894;-55
2022/06/10 00:22:33;;;;;;;4.30;1.73;;;;;;;;;;5052610;28;20518;-54
2022/06/10 00:25:00;;;;;;;2.17;1.80;;;;;;;;;;5052525;28;20447;-54
2022/06/10 00:27:27;;;;;;;1.97;1.87;;;;;;;;;;5052366;28;20494;-55
2022/06/10 00:29:54;;;;;;;1.90;1.80;;;;;;;;;;5052422;28;20935;-54
2022/06/10 00:32:22;;;;;;;2.63;1.67;;;;;;;;;;5052612;28;20475;-55
2022/06/10 00:34:49;;;;;;;3.10;1.73;;;;;;;;;;5052557;28;20509;-56
2022/06/10 00:37:17;;;;;;;2.30;2.10;;;;;;;;;;5052473;28;20806;-57
2022/06/10 00:39:44;;;;;;;1.83;1.60;;;;;;;;;;5052497;28;20455;-56
2022/06/10 00:42:12;;;;;;;2.03;1.83;;;;;;;;;;5052315;28;20473;-56
2022/06/10 00:44:41;;;;;;;2.87;1.97;;;;;;;;;;5052122;28;20487;-56
2022/06/10 00:47:15;;;;;;;2.00;1.80;;;;;;;;;;5052401;28;20484;-56
2022/06/10 00:49:45;;;;;;;2.07;1.97;;;;;;;;;;5052366;28;20494;-56
2022/06/10 00:52:15;;;;;;;1.87;1.77;;;;;;;;;;5055237;28;20808;-56
2022/06/10 00:54:45;;;;;;;1.83;1.73;;;;;;;;;;5055786;28;20455;-57
2022/06/10 00:57:14;;;;;;;2.13;2.03;;;;;;;;;;5055846;28;20483;-54
2022/06/10 00:59:43;;;;;;;2.30;2.20;;;;;;;;;;5055945;28;20502;-56
2022/06/10 01:02:11;;;;;;;2.27;2.07;;;;;;;;;;5055854;28;20459;-55
2022/06/10 01:04:40;;;;;;;2.63;2.43;;;;;;;;;;5055704;28;20816;-53
2022/06/10 01:07:08;;;;;;;1.87;1.77;;;;;;;;;;5055630;28;20476;-55
2022/06/10 01:09:36;;;;;;;2.40;1.90;;;;;;;;;;5055761;28;20478;-54
2022/06/10 01:12:12;;;;;;;2.93;2.60;;;;;;;;;;5055641;28;20452;-55
2022/06/10 01:14:47;;;;;;;2.30;2.20;;;;;;;;;;5055677;28;20551;-55
2022/06/10 01:17:21;;;;;;;2.00;1.90;;;;;;;;;;5055467;28;20456;-57
2022/06/10 01:19:55;;;;;;;2.40;2.20;;;;;;;;;;5055288;28;20532;-51
2022/06/10 01:22:33;;;;;;;2.00;1.87;;;;;;;;;;5055491;28;20444;-53
2022/06/10 01:25:15;;;;;;;2.60;2.40;;;;;;;;;;5055457;28;20451;-54
2022/06/10 01:27:55;;;;;;;4.53;2.37;;;;;;;;;;5055235;28;20995;-52
2022/06/10 01:30:42;;;;;;;2.20;2.10;;;;;;;;;;5055166;28;20459;-54
2022/06/10 01:33:16;;;;;;;2.60;2.40;;;;;;;;;;5055585;28;20448;-55
2022/06/10 01:35:45;;;;;;;2.33;2.23;;;;;;;;;;5055203;28;20532;-53
2022/06/10 01:38:18;;;;;;;2.63;2.43;;;;;;;;;;5055092;28;20453;-52
2022/06/10 01:40:49;;;;;;;2.23;2.13;;;;;;;;;;5054969;28;20463;-53
2022/06/10 01:43:18;;;;;;;2.97;2.73;;;;;;;;;;5054867;28;20476;-54
2022/06/10 01:45:49;;;;;;;2.53;2.33;;;;;;;;;;5054997;28;20448;-52
2022/06/10 01:48:19;;;;;;;2.37;1.93;;;;;;;;;;5054803;28;20483;-54
2022/06/10 01:50:49;;;;;;;2.40;2.10;;;;;;;;;;5054909;28;20459;-53
2022/06/10 01:53:20;;;;;;;3.20;2.67;;;;;;;;;;5054719;28;20972;-53
2022/06/10 01:55:49;;;;;;;2.40;2.20;;;;;;;;;;5054689;28;20478;-52
2022/06/10 01:58:19;;;;;;;2.43;2.33;;;;;;;;;;5054747;28;20563;-51
2022/06/10 02:00:49;;;;;;;4.60;1.90;;;;;;;;;;5054680;28;20551;-52
2022/06/10 02:03:17;;;;;;;2.50;2.30;;;;;;;;;;5054502;28;20448;-55
2022/06/10 02:05:47;;;;;;;1.83;1.67;;;;;;;;;;5054524;28;20444;-52
2022/06/10 02:08:15;;;;;;;2.20;1.97;;;;;;;;;;5054611;28;20484;-52
2022/06/10 02:10:45;;;;;;;2.57;2.37;;;;;;;;;;5054393;28;21019;-51
2022/06/10 02:13:15;;;;;;;2.50;2.30;;;;;;;;;;5054307;28;20453;-51
2022/06/10 02:15:44;;;;;;;2.77;2.53;;;;;;;;;;5054334;28;20449;-51
2022/06/10 02:18:15;;;;;;;3.20;2.90;;;;;;;;;;5054178;28;20514;-55
2022/06/10 02:20:44;;;;;;;1.93;1.83;;;;;;;;;;5054199;28;21122;-54
2022/06/10 02:23:13;;;;;;;3.33;1.83;;;;;;;;;;5054331;28;20455;-56
2022/06/10 02:25:42;;;;;;;2.93;2.33;;;;;;;;;;5054164;28;20449;-55
2022/06/10 02:28:10;;;;;;;2.17;2.00;;;;;;;;;;5053861;28;21064;-53
2022/06/10 02:30:42;;;;;;;2.77;2.57;;;;;;;;;;5053940;28;20455;-57
2022/06/10 02:33:09;;;;;;;2.80;2.30;;;;;;;;;;5054155;28;20455;-56
2022/06/10 02:35:40;;;;;;;2.83;2.20;;;;;;;;;;5054060;28;20456;-56
2022/06/10 02:38:12;;;;;;;2.53;2.33;;;;;;;;;;5053997;28;20961;-54
2022/06/10 02:40:42;;;;;;;2.33;2.23;;;;;;;;;;5053854;28;20455;-56
2022/06/10 02:43:10;;;;;;;2.63;2.40;;;;;;;;;;5053570;28;20472;-54
2022/06/10 02:45:41;;;;;;;4.00;2.13;;;;;;;;;;5053809;28;20454;-56
2022/06/10 02:48:11;;;;;;;2.53;2.33;;;;;;;;;;5053796;28;20484;-55
2022/06/10 02:50:39;;;;;;;2.53;2.23;;;;;;;;;;5053639;28;20970;-55
2022/06/10 02:53:07;;;;;;;2.27;2.07;;;;;;;;;;5053672;28;20464;-56
2022/06/10 02:55:35;;;;;;;2.70;2.50;;;;;;;;;;5053472;28;21009;-57
2022/06/10 03:01:16;;;;;;;2.73;2.50;;;;;;;;;;5053436;28;20490;-55
2022/06/10 03:03:58;;;;;;;2.43;2.17;;;;;;;;;;5053383;28;20480;-55
2022/06/10 03:06:31;;;;;;;2.70;2.47;;;;;;;;;;5044724;28;20459;-56
2022/06/10 03:09:02;;;;;;;3.00;2.80;;;;;;;;;;5053341;28;20847;-54
2022/06/10 03:11:33;;;;;;;9.70;3.10;;;;;;;;;;5053344;28;20448;-53
2022/06/10 03:14:05;;;;;;;3.20;2.60;;;;;;;;;;5052864;28;20452;-55
2022/06/10 03:16:39;;;;;;;3.50;2.60;;;;;;;;;;5053168;28;20452;-56
2022/06/10 03:19:09;;;;;;;4.03;2.90;;;;;;;;;;5053284;28;20451;-56
2022/06/10 03:21:42;;;;;;;6.10;2.80;;;;;;;;;;5053189;28;20543;-55
2022/06/10 03:24:12;;;;;;;2.70;2.50;;;;;;;;;;5053187;28;20543;-56
2022/06/10 03:26:42;;;;;;;3.40;2.80;;;;;;;;;;5053286;28;20453;-56
2022/06/10 03:29:13;;;;;;;3.83;2.47;;;;;;;;;;5052878;28;20529;-56
2022/06/10 03:31:42;;;;;;;2.90;2.60;;;;;;;;;;5053163;28;20459;-54
2022/06/10 03:34:13;;;;;;;3.17;2.90;;;;;;;;;;5052965;28;20455;-57
2022/06/10 03:36:42;;;;;;;4.00;2.83;;;;;;;;;;5052980;28;20537;-55
2022/06/10 03:39:09;;;;;;;2.90;2.70;;;;;;;;;;5052735;28;20452;-55
2022/06/10 03:41:38;;;;;;;3.03;2.60;;;;;;;;;;5052995;28;20452;-56
2022/06/10 03:44:10;;;;;;;3.60;2.90;;;;;;;;;;5052645;28;20472;-56
2022/06/10 03:46:37;;;;;;;3.40;3.17;;;;;;;;;;5052946;28;20444;-55
2022/06/10 03:49:07;;;;;;;3.50;2.80;;;;;;;;;;5052825;28;20490;-56
2022/06/10 03:51:34;;;;;;;4.37;3.53;;;;;;;;;;5052821;28;20479;-57
2022/06/10 03:54:02;;;;;;;3.27;2.97;;;;;;;;;;5052744;28;20452;-57
2022/06/10 03:56:31;;;;;;;7.50;3.63;;;;;;;;;;5052839;28;20448;-55
2022/06/10 03:58:58;;;;;;;5.63;3.37;;;;;;;;;;5052801;28;20452;-56
2022/06/10 04:01:25;;;;;;;3.90;3.60;;;;;;;;;;5052703;28;20448;-56
2022/06/10 04:03:52;;;;;;;4.30;3.73;;;;;;;;;;5052626;28;20803;-56
2022/06/10 04:06:19;;;;;;;5.27;3.30;;;;;;;;;;5052596;28;20463;-56
2022/06/10 04:08:46;;;;;;;4.40;3.40;;;;;;;;;;5052469;28;21149;-56
2022/06/10 04:11:14;;;;;;;7.10;4.73;;;;;;;;;;5052732;28;20444;-57
2022/06/10 04:13:41;;;;;;;5.80;4.43;;;;;;;;;;5052682;28;20827;-57
2022/06/10 04:16:08;;;;;;;6.40;3.90;;;;;;;;;;5052402;28;20951;-53
2022/06/10 04:18:35;;;;;;;4.90;4.40;;;;;;;;;;5052494;28;20444;-55
2022/06/10 04:21:02;;;;;;;9.37;4.87;;;;;;;;;;5052372;28;20450;-57
2022/06/10 04:23:29;;;;;;;6.27;3.90;;;;;;;;;;5052655;28;20812;-55
2022/06/10 04:25:56;;;;;;;6.83;4.47;;;;;;;;;;5053512;28;20459;-55
2022/06/10 04:28:24;;;;;;;4.87;3.40;;;;;;;;;;5056357;28;20472;-56
2022/06/10 04:30:52;;;;;;;5.20;4.50;;;;;;;;;;5056240;28;20450;-57
2022/06/10 04:33:20;;;;;;;4.80;4.30;;;;;;;;;;5056110;28;20510;-56
2022/06/10 04:35:47;;;;;;;6.83;4.30;;;;;;;;;;5056205;28;20444;-56
2022/06/10 04:38:16;;;;;;;4.73;4.33;;;;;;;;;;5056264;28;20456;-56
2022/06/10 04:40:43;;;;;;;6.00;4.43;;;;;;;;;;5056236;28;20887;-56
2022/06/10 04:43:11;;;;;;;3.90;3.37;;;;;;;;;;5055838;28;21041;-56
2022/06/10 04:45:40;;;;;;;5.93;3.80;;;;;;;;;;5056002;28;20456;-57
2022/06/10 04:48:07;;;;;;;3.27;3.07;;;;;;;;;;5055727;28;20615;-56
2022/06/10 04:50:34;;;;;;;6.47;3.30;;;;;;;;;;5055961;28;20807;-57
2022/06/10 04:53:01;;;;;;;5.80;3.50;;;;;;;;;;5055973;28;20799;-55
2022/06/10 04:55:28;;;;;;;4.80;3.60;;;;;;;;;;5055773;28;20448;-57
2022/06/10 04:57:55;;;;;;;3.20;2.90;;;;;;;;;;5056134;28;20522;-55
2022/06/10 05:00:24;;;;;;;4.80;3.23;;;;;;;;;;5055539;28;20859;-56
2022/06/10 05:02:53;;;;;;;2.93;2.73;;;;;;;;;;5055546;28;20448;-55
2022/06/10 05:05:21;;;;;;;5.33;3.00;;;;;;;;;;5056004;28;20452;-61
2022/06/10 05:07:49;;;;;;;7.67;3.30;;;;;;;;;;5055570;28;20452;-56
2022/06/10 05:10:17;;;;;;;5.43;2.93;;;;;;;;;;5055605;28;20444;-57
2022/06/10 05:12:45;;;;;;;5.10;3.00;;;;;;;;;;5055441;28;20445;-57
2022/06/10 05:15:13;;;;;;;3.63;2.83;;;;;;;;;;5055245;28;20506;-56
2022/06/10 05:17:40;;;;;;;3.30;3.00;;;;;;;;;;5055415;28;20444;-57
2022/06/10 05:20:09;;;;;;;3.70;2.97;;;;;;;;;;5055438;28;20448;-57
2022/06/10 05:22:36;;;;;;;2.70;2.30;;;;;;;;;;5055319;28;20444;-57
2022/06/10 05:25:03;;;;;;;5.00;2.20;;;;;;;;;;5055243;28;20448;-54
2022/06/10 05:27:30;;;;;;;2.67;2.03;;;;;;;;;;5055125;28;20448;-57
2022/06/10 05:29:57;;;;;;;2.53;2.23;;;;;;;;;;5055092;28;20515;-57
2022/06/10 05:32:24;;;;;;;2.90;2.37;;;;;;;;;;5055099;28;20931;-56
2022/06/10 05:34:51;;;;;;;2.60;2.20;;;;;;;;;;5055170;28;20448;-57
2022/06/10 05:37:20;;;;;;;2.47;2.27;;;;;;;;;;5054647;28;20531;-56
2022/06/10 05:39:47;;;;;;;4.50;2.00;;;;;;;;;;5054863;28;20456;-57
2022/06/10 05:42:15;;;;;;;2.43;1.90;;;;;;;;;;5054719;28;20452;-57
2022/06/10 05:44:43;;;;;;;3.57;2.73;;;;;;;;;;5054657;28;20837;-58
2022/06/10 05:47:11;;;;;;;3.53;1.90;;;;;;;;;;5054863;28;20543;-55
2022/06/10 05:49:40;;;;;;;4.60;2.30;;;;;;;;;;5054613;28;20480;-57
2022/06/10 05:52:07;;;;;;;4.50;1.93;;;;;;;;;;5054600;28;20757;-57
2022/06/10 05:54:36;;;;;;;2.70;1.30;;;;;;;;;;5054567;28;20452;-57
2022/06/10 05:57:03;;;;;;;2.30;1.73;;;;;;;;;;5054756;28;20445;-57
2022/06/10 05:59:33;;;;;;;3.70;1.70;;;;;;;;;;5054619;28;20531;-56
2022/06/10 06:02:00;;;;;;;3.03;2.73;;;;;;;;;;5054637;28;20824;-56
2022/06/10 06:04:27;;;;;;;2.00;1.50;;;;;;;;;;5054405;28;20543;-57
2022/06/10 06:06:54;;;;;;;3.30;1.30;;;;;;;;;;5054406;28;20470;-57
2022/06/10 06:09:21;;;;;;;6.27;1.73;;;;;;;;;;5054107;28;21106;-57
2022/06/10 06:11:50;;;;;;;4.57;1.70;;;;;;;;;;5054169;28;21009;-57
2022/06/10 06:14:18;;;;;;;4.77;1.77;;;;;;;;;;5054414;28;20451;-56
2022/06/10 06:16:47;;;;;;;2.13;1.40;;;;;;;;;;5054232;28;20959;-57
2022/06/10 06:19:14;;;;;;;3.07;1.80;;;;;;;;;;5054182;28;20448;-56
2022/06/10 06:21:41;;;;;;;2.63;1.83;;;;;;;;;;5054119;28;20535;-57
2022/06/10 06:24:08;;;;;;;1.77;1.50;;;;;;;;;;5054031;28;20448;-57
2022/06/10 06:26:35;;;;;;;3.40;1.80;;;;;;;;;;5054218;28;20527;-56
2022/06/10 06:29:03;;;;;;;4.73;2.00;;;;;;;;;;5053972;28;20480;-56
2022/06/10 06:31:30;;;;;;;6.40;1.77;;;;;;;;;;5045223;28;20444;-56
2022/06/10 06:33:57;;;;;;;4.27;1.70;;;;;;;;;;5033992;28;20526;-56
2022/06/10 06:36:26;;;;;;;3.57;1.70;;;;;;;;;;5033775;28;20465;-56
2022/06/10 06:38:53;;;;;;;4.63;1.77;;;;;;;;;;5033931;28;20447;-57
2022/06/10 06:41:21;;;;;;;3.00;1.90;;;;;;;;;;5033892;28;20452;-56
2022/06/10 06:43:48;;;;;;;4.10;1.80;;;;;;;;;;5034869;28;20507;-57
2022/06/10 06:46:18;;;;;;;2.27;1.73;;;;;;;;;;5038600;28;21008;-58
2022/06/10 06:48:46;;;;;;;6.13;1.90;;;;;;;;;;5051989;28;20476;-54
2022/06/10 06:51:13;;;;;;;2.50;1.40;;;;;;;;;;5043355;28;20556;-54
2022/06/10 06:53:39;;;;;;;4.83;1.43;;;;;;;;;;5033691;28;20809;-55
2022/06/10 06:56:07;;;;;;;2.50;1.43;;;;;;;;;;5033499;28;20456;-56
2022/06/10 06:58:34;;;;;;;12.03;2.47;;;;;;;;;;5033502;28;20461;-53
2022/06/10 07:01:01;;;;;;;2.50;1.43;;;;;;;;;;5035620;28;20453;-54
2022/06/10 07:03:30;;;;;;;8.00;1.90;;;;;;;;;;5053090;28;20459;-51
2022/06/10 07:05:57;;;;;;;4.13;1.37;;;;;;;;;;5053448;28;20898;-56
2022/06/10 07:08:31;;;;;;;4.43;1.20;;;;;;;;;;5052135;28;20456;-53
2022/06/10 07:10:57;;;;;;;2.53;1.40;;;;;;;;;;5053327;28;20460;-57
2022/06/10 07:13:24;;;;;;;2.40;1.23;;;;;;;;;;5052645;28;20450;-60
2022/06/10 07:15:51;;;;;;;4.37;1.60;;;;;;;;;;5052148;28;20449;-59
2022/06/10 07:18:18;;;;;;;5.07;1.20;;;;;;;;;;5054240;28;20803;-59
2022/06/10 07:20:47;;;;;;;2.17;1.23;;;;;;;;;;5052619;28;20444;-58
2022/06/10 07:23:14;;;;;;;3.73;1.30;;;;;;;;;;5051253;28;20448;-56
2022/06/10 07:25:41;;;;;;;2.50;1.50;;;;;;;;;;5049300;28;20506;-58
2022/06/10 07:28:08;;;;;;;2.37;1.50;;;;;;;;;;5045409;28;20456;-57
2022/06/10 07:30:36;;;;;;;3.33;1.27;;;;;;;;;;5040803;28;20491;-57
2022/06/10 07:33:03;;;;;;;5.53;1.30;;;;;;;;;;5032101;28;20457;-57
2022/06/10 07:35:30;;;;;;;3.87;1.60;;;;;;;;;;5032596;28;20953;-55
2022/06/10 07:37:59;;;;;;;3.20;1.30;;;;;;;;;;5032466;28;20453;-58
2022/06/10 07:43:12;;;;;;;4.77;1.57;;;;;;;;;;5032445;28;20555;-58
2022/06/10 07:45:39;;;;;;;3.00;1.57;;;;;;;;;;5032927;28;20797;-58
2022/06/10 07:48:07;;;;;;;3.13;1.00;;;;;;;;;;5032850;28;20552;-58
2022/06/10 07:50:34;;;;;;;2.33;1.50;;;;;;;;;;5032691;28;20576;-58
2022/06/10 07:53:02;;;;;;;4.30;1.67;;;;;;;;;;5032476;28;20456;-57
2022/06/10 07:55:29;;;;;;;3.93;1.70;;;;;;;;;;5032437;28;20449;-58
2022/06/10 07:57:56;;;;;;;3.33;1.60;;;;;;;;;;5032785;28;20532;-58
2022/06/10 08:00:25;;;;;;;2.77;1.43;;;;;;;;;;5034526;28;20511;-58
2022/06/10 08:02:51;;;;;;;7.53;1.60;;;;;;;;;;5036797;28;20460;-58
2022/06/10 08:05:19;;;;;;;4.47;1.60;;;;;;;;;;5036790;28;20448;-58
2022/06/10 08:07:46;;;;;;;8.83;1.83;;;;;;;;;;5036614;28;20449;-58
2022/06/10 08:10:18;;;;;;;3.23;1.73;;;;;;;;;;5036354;28;20481;-58
2022/06/10 08:12:45;;;;;;;3.57;1.47;;;;;;;;;;5036821;28;20449;-58
2022/06/10 08:15:12;;;;;;;2.30;1.27;;;;;;;;;;5036585;28;20441;-58
2022/06/10 08:17:39;;;;;;;2.00;1.30;;;;;;;;;;5036554;28;20535;-57
2022/06/10 08:20:07;;;;;;;3.20;1.57;;;;;;;;;;5036434;28;20468;-58
2022/06/10 08:22:34;;;;;;;5.33;1.53;;;;;;;;;;5036376;28;20943;-58
2022/06/10 08:25:01;;;;;;;2.83;1.20;;;;;;;;;;5036238;28;20452;-57
2022/06/10 08:27:29;;;;;;;4.50;1.60;;;;;;;;;;5036319;28;20449;-58
2022/06/10 08:29:57;;;;;;;4.03;1.70;;;;;;;;;;5036081;28;20496;-57
2022/06/10 08:32:24;;;;;;;2.93;1.60;;;;;;;;;;5036101;28;20856;-58
2022/06/10 08:34:51;;;;;;;3.43;1.30;;;;;;;;;;5036073;28;20452;-57
2022/06/10 08:37:18;;;;;;;4.43;1.70;;;;;;;;;;5035892;28;20731;-57
2022/06/10 08:39:45;;;;;;;2.63;1.33;;;;;;;;;;5036045;28;20445;-58
2022/06/10 08:42:19;;;;;;;6.50;1.83;;;;;;;;;;5035958;28;20583;-58
2022/06/10 08:44:51;;;;;;;3.37;1.50;;;;;;;;;;5035871;28;20517;-57
2022/06/10 08:47:24;;;;;;;3.67;1.53;;;;;;;;;;5035909;28;20449;-57
2022/06/10 08:50:06;;;;;;;4.90;1.53;;;;;;;;;;5035645;28;20483;-57
2022/06/10 08:52:38;;;;;;;2.73;1.20;;;;;;;;;;5035750;28;21006;-57
2022/06/10 08:55:10;;;;;;;4.57;1.50;;;;;;;;;;5035884;28;20790;-57
2022/06/10 08:57:38;;;;;;;1.90;1.40;;;;;;;;;;5035799;28;20449;-57
2022/06/10 09:00:12;;;;;;;3.30;1.60;;;;;;;;;;5035588;28;20449;-57
2022/06/10 09:02:40;;;;;;;7.60;1.73;;;;;;;;;;5035933;28;20540;-58
2022/06/10 09:05:10;;;;;;;2.73;1.70;;;;;;;;;;5035578;28;20960;-57
2022/06/10 09:07:40;;;;;;;5.03;1.47;;;;;;;;;;5035562;28;20868;-57
2022/06/10 09:10:08;;;;;;;2.90;1.37;;;;;;;;;;5035330;28;20988;-57
2022/06/10 09:12:44;;;;;;;4.20;1.80;;;;;;;;;;5034636;28;20969;-57
2022/06/10 09:15:15;;;;;;;3.13;1.53;;;;;;;;;;5035582;28;20453;-58
2022/06/10 09:17:44;;;;;;;2.00;1.10;;;;;;;;;;5035468;28;20459;-57
2022/06/10 09:20:15;;;;;;;3.37;1.60;;;;;;;;;;5035399;28;20458;-57
2022/06/10 09:22:43;;;;;;;5.70;2.17;;;;;;;;;;5035289;28;20455;-57
2022/06/10 09:25:12;;;;;;;3.27;1.63;;;;;;;;;;5035038;28;20445;-57
2022/06/10 09:27:40;;;;;;;3.97;1.33;;;;;;;;;;5035321;28;20459;-57
2022/06/10 09:30:08;;;;;;;3.73;1.57;;;;;;;;;;5035128;28;20481;-57
2022/06/10 09:32:42;;;;;;;4.63;1.30;;;;;;;;;;5035199;28;20453;-58
2022/06/10 09:35:13;;;;;;;3.83;1.53;;;;;;;;;;5035131;28;20453;-55
2022/06/10 09:37:44;;;;;;;3.97;1.60;;;;;;;;;;5034979;28;20994;-58
2022/06/10 09:43:18;;;;;;;3.50;1.43;;;;;;;;;;5034274;28;20884;-56
2022/06/10 09:45:48;;;;;;;5.17;1.53;;;;;;;;;;5050850;28;20454;-58
2022/06/10 09:48:23;;;;;;;5.00;1.70;;;;;;;;;;5068403;28;20539;-58
2022/06/10 09:50:56;;;;;;;2.27;1.30;;;;;;;;;;5056819;28;20575;-57
2022/06/10 09:53:30;;;;;;;4.13;2.37;;;;;;;;;;5056472;28;20461;-57
2022/06/10 09:56:11;;;;;;;2.60;1.27;;;;;;;;;;5034576;28;20844;-59
2022/06/10 09:58:48;;;;;;;2.50;1.63;;;;;;;;;;5044057;28;21038;-59
2022/06/10 10:01:22;;;;;;;3.70;1.47;;;;;;;;;;5054599;28;20539;-52
2022/06/10 10:04:05;;;;;;;2.53;1.30;;;;;;;;;;5053044;28;20815;-58
2022/06/10 10:06:35;;;;;;;2.57;1.30;;;;;;;;;;5053358;28;20951;-58
2022/06/10 10:09:08;;;;;;;2.57;1.10;;;;;;;;;;5034360;28;20457;-58
2022/06/10 10:11:37;;;;;;;5.07;1.43;;;;;;;;;;5034884;28;20480;-58
2022/06/10 10:14:09;;;;;;;4.73;1.90;;;;;;;;;;5034343;28;20453;-58
2022/06/10 10:16:40;;;;;;;5.43;1.47;;;;;;;;;;5042598;28;20459;-58
2022/06/10 10:19:15;;;;;;;1.93;1.20;;;;;;;;;;5052654;28;20509;-52
2022/06/10 10:21:45;;;;;;;6.90;1.60;;;;;;;;;;5040916;28;20480;-53
2022/06/10 10:24:15;;;;;;;3.00;1.60;;;;;;;;;;5052521;28;20452;-52
2022/06/10 10:26:43;;;;;;;2.13;1.30;;;;;;;;;;5054330;28;20456;-56
2022/06/10 10:29:13;;;;;;;3.70;1.50;;;;;;;;;;5041387;28;20556;-57
2022/06/10 10:31:43;;;;;;;4.50;1.70;;;;;;;;;;5041041;28;21037;-57
2022/06/10 10:34:17;;;;;;;5.03;1.40;;;;;;;;;;5053527;28;20451;-60
2022/06/10 10:36:50;;;;;;;3.73;1.20;;;;;;;;;;5053827;28;20959;-59
2022/06/10 10:39:18;;;;;;;4.97;1.60;;;;;;;;;;5051959;28;20452;-60
2022/06/10 10:41:46;;;;;;;3.17;1.10;;;;;;;;;;5053624;28;20543;-60
2022/06/10 10:44:25;;;;;;;2.47;1.13;;;;;;;;;;5053441;28;20473;-60
2022/06/10 10:46:59;;;;;;;3.07;1.13;;;;;;;;;;5053941;28;20448;-60
2022/06/10 10:49:29;;;;;;;4.07;1.10;;;;;;;;;;5053610;28;20813;-60
2022/06/10 10:51:56;;;;;;;2.70;1.33;;;;;;;;;;5053690;28;20547;-60
2022/06/10 10:54:26;;;;;;;3.00;1.30;;;;;;;;;;5053429;28;20452;-60
2022/06/10 10:56:53;;;;;;;3.33;1.30;;;;;;;;;;5053231;28;20446;-60
2022/06/10 10:59:31;;;;;;;2.30;1.57;;;;;;;;;;5053436;28;20470;-59
2022/06/10 11:01:58;;;;;;;2.93;1.10;;;;;;;;;;5053374;28;20444;-60
2022/06/10 11:04:29;;;;;;;2.30;1.10;;;;;;;;;;5053364;28;20452;-60
2022/06/10 11:07:00;;;;;;;4.63;1.60;;;;;;;;;;5053254;28;20448;-61
2022/06/10 11:09:28;;;;;;;5.90;1.40;;;;;;;;;;5052904;28;20455;-61
2022/06/10 11:11:56;;;;;;;3.57;1.57;;;;;;;;;;5053101;28;20479;-61
2022/06/10 11:14:25;;;;;;;4.20;1.37;;;;;;;;;;5053116;28;20514;-61
2022/06/10 11:17:03;;;;;;;2.47;1.20;;;;;;;;;;5053170;28;20448;-60
2022/06/10 11:19:42;;;;;;;3.20;1.57;;;;;;;;;;5053110;28;20527;-60
2022/06/10 11:22:11;;;;;;;5.93;1.40;;;;;;;;;;5053365;28;20882;-61
2022/06/10 11:24:39;;;;;;;2.33;0.93;;;;;;;;;;5053270;28;20883;-61
2022/06/10 11:27:19;;;;;;;3.53;1.20;;;;;;;;;;5053130;28;20449;-60
2022/06/10 11:29:57;;;;;;;3.37;1.37;;;;;;;;;;5052990;28;20531;-61
2022/06/10 11:32:26;;;;;;;3.50;1.40;;;;;;;;;;5053236;28;20436;-61
2022/06/10 11:34:58;;;;;;;2.30;1.20;;;;;;;;;;5052776;28;20452;-61
2022/06/10 11:37:29;;;;;;;3.10;1.40;;;;;;;;;;5053239;28;20452;-61
2022/06/10 11:40:02;;;;;;;1.43;1.03;;;;;;;;;;5052656;28;20452;-61
2022/06/10 11:42:32;;;;;;;2.50;1.00;;;;;;;;;;5052739;28;20448;-62
2022/06/10 11:45:03;;;;;;;2.90;1.40;;;;;;;;;;5052853;28;20966;-60
2022/06/10 11:47:34;;;;;;;4.00;1.50;;;;;;;;;;5052880;28;20440;-61
2022/06/10 11:50:06;;;;;;;3.17;1.20;;;;;;;;;;5052746;28;20448;-61
2022/06/10 11:52:34;;;;;;;4.70;1.30;;;;;;;;;;5052823;28;20452;-61
2022/06/10 11:55:05;;;;;;;2.23;1.10;;;;;;;;;;5052525;28;20543;-61
2022/06/10 12:00:22;;;;;;;8.70;1.30;;;;;;;;;;5052715;28;20435;-61
2022/06/10 12:02:52;;;;;;;3.97;1.50;;;;;;;;;;5052712;28;20452;-61
2022/06/10 12:05:23;;;;;;;3.73;1.50;;;;;;;;;;5052687;28;20495;-61
2022/06/10 12:07:55;;;;;;;3.27;1.37;;;;;;;;;;5052506;28;20448;-61
2022/06/10 12:10:25;;;;;;;2.43;1.40;;;;;;;;;;5052426;28;20991;-61
2022/06/10 12:12:53;;;;;;;2.70;1.23;;;;;;;;;;5052763;28;20456;-61
2022/06/10 12:15:22;;;;;;;2.80;1.30;;;;;;;;;;5052477;28;20551;-61
2022/06/10 12:17:50;;;;;;;3.37;1.20;;;;;;;;;;5052435;28;20449;-61
2022/06/10 12:20:21;;;;;;;2.03;1.10;;;;;;;;;;5052423;28;20454;-61
2022/06/10 12:22:49;;;;;;;2.93;1.20;;;;;;;;;;5052570;28;20452;-61
2022/06/10 12:25:18;;;;;;;1.93;1.10;;;;;;;;;;5052457;28;20869;-61
2022/06/10 12:27:49;;;;;;;1.70;1.10;;;;;;;;;;5052338;28;20503;-61
2022/06/10 12:30:18;;;;;;;3.37;1.20;;;;;;;;;;5052394;28;20906;-61
2022/06/10 12:32:47;;;;;;;2.67;1.50;;;;;;;;;;5052274;28;20498;-61
2022/06/10 12:35:18;;;;;;;4.37;1.73;;;;;;;;;;5052363;28;20510;-61
2022/06/10 12:37:49;;;;;;;4.87;1.57;;;;;;;;;;5052669;28;20452;-61
2022/06/10 12:40:20;;;;;;;1.97;1.07;;;;;;;;;;5052235;28;20543;-61
2022/06/10 12:42:48;;;;;;;1.63;0.93;;;;;;;;;;5052075;28;20470;-61
2022/06/10 12:45:21;;;;;;;2.57;2.10;;;;;;;;;;5052001;28;20822;-61
2022/06/10 12:47:49;;;;;;;2.10;0.93;;;;;;;;;;5054752;28;20456;-61
2022/06/10 12:50:19;;;;;;;1.43;1.10;;;;;;;;;;5055934;28;20471;-61
2022/06/10 12:52:56;;;;;;;2.23;1.10;;;;;;;;;;5056322;28;20448;-61
2022/06/10 12:55:27;;;;;;;3.07;1.20;;;;;;;;;;5055891;28;20455;-62
2022/06/10 12:57:55;;;;;;;1.80;1.20;;;;;;;;;;5055629;28;20588;-61
2022/06/10 13:00:38;;;;;;;2.33;1.10;;;;;;;;;;5055957;28;20879;-61
2022/06/10 13:03:24;;;;;;;2.47;1.10;;;;;;;;;;5055820;28;20448;-61
2022/06/10 13:05:52;;;;;;;2.40;1.00;;;;;;;;;;5055494;28;20497;-61
2022/06/10 13:08:37;;;;;;;1.90;1.00;;;;;;;;;;5055560;28;20538;-61
2022/06/10 13:11:06;;;;;;;1.83;1.10;;;;;;;;;;5055761;28;20831;-61
2022/06/10 13:13:33;;;;;;;1.53;1.10;;;;;;;;;;5055472;28;20458;-61
2022/06/10 13:16:15;;;;;;;1.90;1.03;;;;;;;;;;5055412;28;20448;-61
2022/06/10 13:18:43;;;;;;;1.73;1.10;;;;;;;;;;5055820;28;20448;-61
2022/06/10 13:21:12;;;;;;;3.30;1.43;;;;;;;;;;5055430;28;20458;-61
2022/06/10 13:23:48;;;;;;;1.73;1.23;;;;;;;;;;5055474;28;20453;-61
2022/06/10 13:26:18;;;;;;;2.30;1.10;;;;;;;;;;5055266;28;20776;-61
2022/06/10 13:28:46;;;;;;;3.40;1.30;;;;;;;;;;5055246;28;20466;-61
2022/06/10 13:31:15;;;;;;;2.80;1.00;;;;;;;;;;5054968;28;20969;-61
2022/06/10 13:33:59;;;;;;;2.30;0.90;;;;;;;;;;5055143;28;20807;-61
2022/06/10 13:36:27;;;;;;;2.53;1.40;;;;;;;;;;5054930;28;20454;-61
2022/06/10 13:38:54;;;;;;;2.40;1.07;;;;;;;;;;5054962;28;20811;-61
2022/06/10 13:44:17;;;;;;;2.70;1.23;;;;;;;;;;5055063;28;21069;-61
2022/06/10 13:46:47;;;;;;;2.07;1.20;;;;;;;;;;5054929;28;20448;-61
2022/06/10 13:49:18;;;;;;;2.47;1.30;;;;;;;;;;5054812;28;20807;-61
2022/06/10 13:51:49;;;;;;;1.80;1.17;;;;;;;;;;5054580;28;20483;-61
2022/06/10 13:54:22;;;;;;;2.43;1.07;;;;;;;;;;5054930;28;20871;-61
2022/06/10 13:56:51;;;;;;;2.70;1.17;;;;;;;;;;5054601;28;20463;-61
2022/06/10 13:59:26;;;;;;;3.47;0.90;;;;;;;;;;5054358;28;20460;-61
2022/06/10 14:01:54;;;;;;;6.03;1.10;;;;;;;;;;5054462;28;20827;-61
2022/06/10 14:04:23;;;;;;;2.13;1.20;;;;;;;;;;5054506;28;20448;-61
2022/06/10 14:06:51;;;;;;;3.43;1.73;;;;;;;;;;5054663;28;20564;-61
2022/06/10 14:09:20;;;;;;;2.37;0.97;;;;;;;;;;5054566;28;20552;-61
2022/06/10 14:12:01;;;;;;;2.53;1.00;;;;;;;;;;5054271;28;20483;-61
2022/06/10 14:14:30;;;;;;;3.13;1.23;;;;;;;;;;5054314;28;20539;-61
2022/06/10 14:17:01;;;;;;;3.07;1.30;;;;;;;;;;5054453;28;20936;-61
2022/06/10 14:19:29;;;;;;;1.40;0.90;;;;;;;;;;5054405;28;20448;-61
2022/06/10 14:21:56;;;;;;;3.20;1.00;;;;;;;;;;5054406;28;20449;-61
2022/06/10 14:24:26;;;;;;;1.00;0.90;;;;;;;;;;5054077;28;20454;-61
2022/06/10 14:26:55;;;;;;;1.50;0.90;;;;;;;;;;5054356;28;20448;-59
2022/06/10 14:29:23;;;;;;;1.33;1.00;;;;;;;;;;5053933;28;20449;-59
2022/06/10 14:31:58;;;;;;;4.87;1.40;;;;;;;;;;5054044;28;20526;-60
2022/06/10 14:34:26;;;;;;;3.23;1.20;;;;;;;;;;5054070;28;20452;-59
2022/06/10 14:36:57;;;;;;;3.50;1.43;;;;;;;;;;5054029;28;20781;-60
2022/06/10 14:39:26;;;;;;;1.70;1.30;;;;;;;;;;5053895;28;20456;-59
2022/06/10 14:41:58;;;;;;;1.30;0.90;;;;;;;;;;5053650;28;20863;-59
2022/06/10 14:44:26;;;;;;;2.23;1.00;;;;;;;;;;5053622;28;20479;-59
2022/06/10 14:47:08;;;;;;;1.33;1.07;;;;;;;;;;5053788;28;20449;-60
2022/06/10 14:49:46;;;;;;;2.20;0.93;;;;;;;;;;5053666;28;20448;-59
2022/06/10 14:52:17;;;;;;;4.00;1.03;;;;;;;;;;5053470;28;20993;-60
2022/06/10 14:54:44;;;;;;;2.87;1.10;;;;;;;;;;5053612;28;20452;-60
2022/06/10 14:57:18;;;;;;;1.30;0.93;;;;;;;;;;5053657;28;20535;-60
2022/06/10 14:59:45;;;;;;;2.03;0.90;;;;;;;;;;5053621;28;20800;-59
2022/06/10 15:02:13;;;;;;;1.50;1.23;;;;;;;;;;5053430;28;20506;-59
2022/06/10 15:06:15;;;;;;;4.20;1.13;;;;;;;;;;5053292;28;20455;-59
2022/06/10 15:07:27;;;;;;;1.43;1.10;;;;;;;;;;5053085;28;20451;-59
2022/06/10 15:09:54;;;;;;;3.90;1.50;;;;;;;;;;5052802;28;20456;-59
2022/06/10 15:12:22;;;;;;;2.00;1.17;;;;;;;;;;5053370;28;20482;-59